createdAt,value
2019-01-19T00:00:16.868Z,-1.24
2019-01-19T00:03:39.396Z,-1.25
2019-01-19T00:07:07.508Z,-1.30
2019-01-19T00:11:08.120Z,-1.31
2019-01-19T00:14:40.224Z,-1.33
2019-01-19T00:18:29.154Z,-1.32
2019-01-19T00:21:54.901Z,-1.37
2019-01-19T00:25:15.869Z,-1.40
2019-01-19T00:28:35.580Z,-1.43
2019-01-19T00:31:49.933Z,-1.44
2019-01-19T00:35:47.049Z,-1.42
2019-01-19T00:39:08.725Z,-1.53
2019-01-19T00:42:33.405Z,-1.53
2019-01-19T00:46:17.772Z,-1.54
2019-01-19T00:49:31.415Z,-1.52
2019-01-19T00:53:12.280Z,-1.52
2019-01-19T00:56:43.762Z,-1.56
2019-01-19T00:59:52.372Z,-1.54
2019-01-19T01:03:24.621Z,-1.57
2019-01-19T01:06:59.275Z,-1.58
2019-01-19T01:10:24.486Z,-1.57
2019-01-19T01:14:11.099Z,-1.61
2019-01-19T01:17:30.587Z,-1.64
2019-01-19T01:21:20.650Z,-1.67
2019-01-19T01:25:04.686Z,-1.68
2019-01-19T01:28:38.173Z,-1.74
2019-01-19T01:31:52.244Z,-1.79
2019-01-19T01:35:32.773Z,-1.78
2019-01-19T01:39:06.169Z,-1.81
2019-01-19T01:42:45.077Z,-1.83
2019-01-19T01:46:12.271Z,-1.83
2019-01-19T01:49:46.765Z,-1.87
2019-01-19T01:53:23.823Z,-1.86
2019-01-19T01:56:27.827Z,-1.87
2019-01-19T01:59:55.391Z,-1.87
2019-01-19T02:03:46.468Z,-1.88
2019-01-19T02:07:27.797Z,-1.88
2019-01-19T02:11:26.972Z,-1.89
2019-01-19T02:14:44.754Z,-1.92
2019-01-19T02:18:27.126Z,-1.92
2019-01-19T02:22:11.920Z,-1.94
2019-01-19T02:26:01.519Z,-1.94
2019-01-19T02:29:42.267Z,-1.96
2019-01-19T02:33:18.678Z,-2.00
2019-01-19T02:36:58.093Z,-2.03
2019-01-19T02:40:30.504Z,-2.01
2019-01-19T02:44:30.896Z,-2.00
2019-01-19T02:48:08.550Z,-1.99
2019-01-19T02:51:32.202Z,-1.92
2019-01-19T02:55:36.161Z,-1.91
2019-01-19T02:59:13.263Z,-1.90
2019-01-19T03:02:36.950Z,-1.84
2019-01-19T03:06:03.433Z,-1.79
2019-01-19T03:09:41.706Z,-1.78
2019-01-19T03:13:12.125Z,-1.79
2019-01-19T03:16:39.713Z,-1.75
2019-01-19T03:19:59.019Z,-1.71
2019-01-19T03:23:15.383Z,-1.67
2019-01-19T03:27:06.731Z,-1.65
2019-01-19T03:31:06.809Z,-1.66
2019-01-19T03:34:42.857Z,-1.63
2019-01-19T03:38:14.178Z,-1.63
2019-01-19T03:41:56.745Z,-1.60
2019-01-19T03:45:23.001Z,-1.58
2019-01-19T03:49:09.071Z,-1.53
2019-01-19T03:52:24.582Z,-1.49
2019-01-19T03:56:14.898Z,-1.46
2019-01-19T03:59:35.735Z,-1.43
2019-01-19T04:03:20.469Z,-1.39
2019-01-19T04:06:42.708Z,-1.37
2019-01-19T04:10:20.427Z,-1.36
2019-01-19T04:14:00.391Z,-1.35
2019-01-19T04:17:37.355Z,-1.33
2019-01-19T04:21:20.948Z,-1.30
2019-01-19T04:24:52.285Z,-1.28
2019-01-19T04:27:56.438Z,-1.27
2019-01-19T04:31:00.642Z,-1.23
2019-01-19T04:34:05.069Z,-1.15
2019-01-19T04:37:09.454Z,-1.14
2019-01-19T04:40:14.275Z,-1.11
2019-01-19T04:43:18.749Z,-1.05
2019-01-19T04:46:23.118Z,-0.97
2019-01-19T04:49:27.628Z,-0.90
2019-01-19T04:52:31.527Z,-0.83
2019-01-19T04:55:35.615Z,-0.80
2019-01-19T04:58:39.622Z,-0.75
2019-01-19T05:01:43.679Z,-0.73
2019-01-19T05:04:47.494Z,-0.70
2019-01-19T05:07:51.376Z,-0.64
2019-01-19T05:10:55.268Z,-0.62
2019-01-19T05:13:59.195Z,-0.58
2019-01-19T05:17:03.463Z,-0.57
2019-01-19T05:20:08.904Z,-0.53
2019-01-19T05:23:12.791Z,-0.49
2019-01-19T05:26:17.265Z,-0.45
2019-01-19T05:29:21.085Z,-0.43
2019-01-19T05:32:25.671Z,-0.39
2019-01-19T05:35:30.156Z,-0.36
2019-01-19T05:38:34.284Z,-0.33
2019-01-19T05:41:38.267Z,-0.30
2019-01-19T05:44:42.081Z,-0.26
2019-01-19T05:47:45.961Z,-0.23
2019-01-19T05:50:49.800Z,-0.19
2019-01-19T05:53:53.699Z,-0.16
2019-01-19T05:56:57.627Z,-0.13
2019-01-19T06:00:01.524Z,-0.08
2019-01-19T06:03:06.169Z,-0.05
2019-01-19T06:06:10.439Z,-0.01
2019-01-19T06:09:14.405Z,0.01
2019-01-19T06:12:18.276Z,0.05
2019-01-19T06:15:23.340Z,0.07
2019-01-19T06:18:28.330Z,0.12
2019-01-19T06:21:35.527Z,0.14
2019-01-19T06:24:39.524Z,0.16
2019-01-19T06:27:43.819Z,0.19
2019-01-19T06:30:47.611Z,0.20
2019-01-19T06:33:51.515Z,0.25
2019-01-19T06:36:55.478Z,0.30
2019-01-19T06:39:59.388Z,0.34
2019-01-19T06:43:03.197Z,0.37
2019-01-19T06:46:07.173Z,0.45
2019-01-19T06:49:11.107Z,0.52
2019-01-19T06:52:15.099Z,0.59
2019-01-19T06:55:22.077Z,0.63
2019-01-19T06:58:25.980Z,0.70
2019-01-19T07:01:29.944Z,0.76
2019-01-19T07:04:33.787Z,0.79
2019-01-19T07:07:37.761Z,0.83
2019-01-19T07:10:41.648Z,0.90
2019-01-19T07:13:45.466Z,0.95
2019-01-19T07:16:49.295Z,0.97
2019-01-19T07:19:53.158Z,0.99
2019-01-19T07:22:57.105Z,0.98
2019-01-19T07:26:00.933Z,1.01
2019-01-19T07:29:04.880Z,1.02
2019-01-19T07:32:08.880Z,1.03
2019-01-19T07:35:12.901Z,1.02
2019-01-19T07:38:16.821Z,1.07
2019-01-19T07:41:20.707Z,1.06
2019-01-19T07:44:24.556Z,1.09
2019-01-19T07:47:28.613Z,1.07
2019-01-19T07:50:32.493Z,1.05
2019-01-19T07:53:36.471Z,1.04
2019-01-19T07:56:40.387Z,1.02
2019-01-19T07:59:44.278Z,1.02
2019-01-19T08:02:48.218Z,1.04
2019-01-19T08:05:52.127Z,1.05
2019-01-19T08:08:56.890Z,1.05
2019-01-19T08:12:00.771Z,1.06
2019-01-19T08:15:05.711Z,1.09
2019-01-19T08:18:09.654Z,1.07
2019-01-19T08:21:13.486Z,1.11
2019-01-19T08:24:17.370Z,1.13
2019-01-19T08:27:21.257Z,1.16
2019-01-19T08:30:27.597Z,1.18
2019-01-19T08:33:31.693Z,1.19
2019-01-19T08:36:35.653Z,1.23
2019-01-19T08:39:39.619Z,1.31
2019-01-19T08:42:43.686Z,1.35
2019-01-19T08:45:49.627Z,1.34
2019-01-19T08:48:53.613Z,1.32
2019-01-19T08:51:57.503Z,1.33
2019-01-19T08:55:01.291Z,1.32
2019-01-19T08:58:05.580Z,1.31
2019-01-19T09:01:09.526Z,1.31
2019-01-19T09:04:13.425Z,1.29
2019-01-19T09:07:17.304Z,1.30
2019-01-19T09:10:21.674Z,1.30
2019-01-19T09:13:25.621Z,1.26
2019-01-19T09:16:29.575Z,1.25
2019-01-19T09:19:33.455Z,1.14
2019-01-19T09:22:37.432Z,1.13
2019-01-19T09:25:41.330Z,1.08
2019-01-19T09:28:45.262Z,1.07
2019-01-19T09:31:49.133Z,1.06
2019-01-19T09:34:53.019Z,1.11
2019-01-19T09:37:56.955Z,1.10
2019-01-19T09:41:01.031Z,1.11
2019-01-19T09:44:05.690Z,1.16
2019-01-19T09:47:09.749Z,1.16
2019-01-19T09:50:14.934Z,1.16
2019-01-19T09:53:18.827Z,1.21
2019-01-19T09:56:22.775Z,1.21
2019-01-19T09:59:26.668Z,1.21
2019-01-19T10:02:30.635Z,1.22
2019-01-19T10:05:34.635Z,1.26
2019-01-19T10:08:38.532Z,1.28
2019-01-19T10:11:42.483Z,1.26
2019-01-19T10:14:46.344Z,1.23
2019-01-19T10:17:50.408Z,1.21
2019-01-19T10:20:54.665Z,1.18
2019-01-19T10:23:58.629Z,1.18
2019-01-19T10:27:02.518Z,1.17
2019-01-19T10:30:09.445Z,1.17
2019-01-19T10:33:13.411Z,1.19
2019-01-19T10:36:17.282Z,1.16
2019-01-19T10:39:21.165Z,1.19
2019-01-19T10:42:25.042Z,1.16
2019-01-19T10:45:28.956Z,1.17
2019-01-19T10:48:32.836Z,1.21
2019-01-19T10:51:36.895Z,1.20
2019-01-19T10:54:40.879Z,1.22
2019-01-19T10:57:44.916Z,1.26
2019-01-19T11:00:48.808Z,1.29
2019-01-19T11:03:53.697Z,1.32
2019-01-19T11:06:57.597Z,1.40
2019-01-19T11:10:01.494Z,1.43
2019-01-19T11:13:05.556Z,1.45
2019-01-19T11:16:09.529Z,1.46
2019-01-19T11:19:13.413Z,1.46
2019-01-19T11:22:17.307Z,1.44
2019-01-19T11:25:21.240Z,1.50
2019-01-19T11:28:25.142Z,1.45
2019-01-19T11:31:29.024Z,1.47
2019-01-19T11:34:32.903Z,1.54
2019-01-19T11:37:36.799Z,1.59
2019-01-19T11:40:40.683Z,1.61
2019-01-19T11:43:44.491Z,1.60
2019-01-19T11:46:48.303Z,1.64
2019-01-19T11:49:52.127Z,1.68
2019-01-19T11:52:56.063Z,1.72
2019-01-19T11:56:00.048Z,1.76
2019-01-19T11:59:04.004Z,1.77
2019-01-19T12:02:07.890Z,1.78
2019-01-19T12:05:11.853Z,1.82
2019-01-19T12:08:19.671Z,1.83
2019-01-19T12:11:21.251Z,1.76
2019-01-19T12:14:25.069Z,1.80
2019-01-19T12:17:29.023Z,1.83
2019-01-19T12:20:35.706Z,1.83
2019-01-19T12:23:39.581Z,1.84
2019-01-19T12:26:43.464Z,1.87
2019-01-19T12:29:47.261Z,1.82
2019-01-19T12:32:51.146Z,1.79
2019-01-19T12:35:55.008Z,1.77
2019-01-19T12:38:58.823Z,1.74
2019-01-19T12:42:02.758Z,1.76
2019-01-19T12:45:09.824Z,1.78
2019-01-19T12:48:13.693Z,1.79
2019-01-19T12:51:17.576Z,1.80
2019-01-19T12:54:21.384Z,1.78
2019-01-19T12:57:25.283Z,1.78
2019-01-19T13:00:29.228Z,1.78
2019-01-19T13:03:33.196Z,1.77
2019-01-19T13:06:41.922Z,1.77
2019-01-19T13:09:52.484Z,1.77
2019-01-19T13:13:23.510Z,1.77
2019-01-19T13:17:07.004Z,1.75
2019-01-19T13:20:19.617Z,1.74
2019-01-19T13:23:51.233Z,1.74
2019-01-19T13:27:35.374Z,1.76
2019-01-19T13:31:10.364Z,1.77
2019-01-19T13:35:05.631Z,1.77
2019-01-19T13:38:45.442Z,1.77
2019-01-19T13:42:35.410Z,1.80
2019-01-19T13:46:03.968Z,1.78
2019-01-19T13:50:00.098Z,1.78
2019-01-19T13:53:31.671Z,1.77
2019-01-19T13:57:22.751Z,1.77
2019-01-19T14:00:55.711Z,1.74
2019-01-19T14:04:25.524Z,1.75
2019-01-19T14:08:13.391Z,1.73
2019-01-19T14:11:53.640Z,1.72
2019-01-19T14:15:35.564Z,1.73
2019-01-19T14:19:19.371Z,1.71
2019-01-19T14:23:08.662Z,1.68
2019-01-19T14:26:54.917Z,1.66
2019-01-19T14:30:45.709Z,1.65
2019-01-19T14:34:12.668Z,1.64
2019-01-19T14:37:58.535Z,1.61
2019-01-19T14:41:38.918Z,1.58
2019-01-19T14:45:00.989Z,1.53
2019-01-19T14:49:10.749Z,1.50
2019-01-19T14:52:48.623Z,1.49
2019-01-19T14:56:24.582Z,1.45
2019-01-19T14:59:50.739Z,1.40
2019-01-19T15:03:32.718Z,1.35
2019-01-19T15:07:20.732Z,1.32
2019-01-19T15:10:36.491Z,1.29
2019-01-19T15:14:14.360Z,1.24
2019-01-19T15:18:13.396Z,1.21
2019-01-19T15:21:34.270Z,1.17
2019-01-19T15:24:51.009Z,1.12
2019-01-19T15:28:43.541Z,1.08
2019-01-19T15:32:37.950Z,1.02
2019-01-19T15:36:21.599Z,0.96
2019-01-19T15:39:38.488Z,0.91
2019-01-19T15:43:08.472Z,0.84
2019-01-19T15:46:40.428Z,0.80
2019-01-19T15:50:31.721Z,0.75
2019-01-19T15:54:26.150Z,0.71
2019-01-19T15:58:20.477Z,0.64
2019-01-19T16:02:02.999Z,0.57
2019-01-19T16:05:17.463Z,0.51
2019-01-19T16:08:43.854Z,0.44
2019-01-19T16:12:24.822Z,0.42
2019-01-19T16:16:07.020Z,0.37
2019-01-19T16:19:33.145Z,0.32
2019-01-19T16:23:10.741Z,0.29
2019-01-19T16:26:58.635Z,0.26
2019-01-19T16:30:32.905Z,0.23
2019-01-19T16:34:01.606Z,0.19
2019-01-19T16:37:14.834Z,0.15
2019-01-19T16:40:34.199Z,0.11
2019-01-19T16:44:00.446Z,0.08
2019-01-19T16:47:51.439Z,0.07
2019-01-19T16:51:18.618Z,0.03
2019-01-19T16:54:57.744Z,-0.01
2019-01-19T16:58:42.043Z,-0.03
2019-01-19T17:02:36.297Z,-0.07
2019-01-19T17:06:03.572Z,-0.10
2019-01-19T17:09:34.534Z,-0.14
2019-01-19T17:13:08.212Z,-0.19
2019-01-19T17:17:05.441Z,-0.22
2019-01-19T17:20:25.133Z,-0.25
2019-01-19T17:24:31.788Z,-0.32
2019-01-19T17:28:28.922Z,-0.34
2019-01-19T17:32:08.330Z,-0.34
2019-01-19T17:35:53.106Z,-0.39
2019-01-19T17:39:40.368Z,-0.43
2019-01-19T17:43:10.143Z,-0.45
2019-01-19T17:46:50.595Z,-0.48
2019-01-19T17:50:44.662Z,-0.50
2019-01-19T17:54:33.096Z,-0.49
2019-01-19T17:58:01.575Z,-0.50
2019-01-19T18:01:30.342Z,-0.51
2019-01-19T18:05:04.508Z,-0.54
2019-01-19T18:08:26.376Z,-0.55
2019-01-19T18:11:59.677Z,-0.57
2019-01-19T18:15:37.577Z,-0.58
2019-01-19T18:19:17.569Z,-0.61
2019-01-19T18:22:57.108Z,-0.66
2019-01-19T18:26:28.781Z,-0.68
2019-01-19T18:30:30.665Z,-0.66
2019-01-19T18:34:02.004Z,-0.65
2019-01-19T18:37:52.414Z,-0.70
2019-01-19T18:41:25.278Z,-0.75
2019-01-19T18:44:58.248Z,-0.79
2019-01-19T18:49:01.418Z,-0.82
2019-01-19T18:52:29.537Z,-0.83
2019-01-19T18:56:04.765Z,-0.84
2019-01-19T18:59:55.928Z,-0.86
2019-01-19T19:03:36.879Z,-0.95
2019-01-19T19:07:17.033Z,-0.97
2019-01-19T19:10:52.453Z,-0.98
2019-01-19T19:14:38.441Z,-0.98
2019-01-19T19:18:07.555Z,-0.99
2019-01-19T19:21:21.308Z,-1.02
2019-01-19T19:25:05.163Z,-1.08
2019-01-19T19:28:44.145Z,-1.10
2019-01-19T19:31:58.822Z,-1.13
2019-01-19T19:35:37.840Z,-1.17
2019-01-19T19:39:23.045Z,-1.20
2019-01-19T19:43:03.655Z,-1.22
2019-01-19T19:46:38.555Z,-1.25
2019-01-19T19:50:29.301Z,-1.29
2019-01-19T19:53:33.269Z,-1.30
2019-01-19T19:56:35.691Z,-1.32
2019-01-19T19:59:39.526Z,-1.35
2019-01-19T20:02:43.330Z,-1.38
2019-01-19T20:05:47.193Z,-1.40
2019-01-19T20:08:51.008Z,-1.44
2019-01-19T20:12:00.562Z,-1.47
2019-01-19T20:15:05.749Z,-1.52
2019-01-19T20:18:09.584Z,-1.55
2019-01-19T20:21:13.479Z,-1.58
2019-01-19T20:24:17.349Z,-1.61
2019-01-19T20:27:21.164Z,-1.64
2019-01-19T20:30:25.123Z,-1.65
2019-01-19T20:33:29.031Z,-1.68
2019-01-19T20:36:32.927Z,-1.72
2019-01-19T20:39:36.816Z,-1.76
2019-01-19T20:42:40.821Z,-1.77
2019-01-19T20:45:44.704Z,-1.82
2019-01-19T20:48:48.530Z,-1.85
2019-01-19T20:51:52.357Z,-1.87
2019-01-19T20:54:56.269Z,-1.88
2019-01-19T20:58:00.180Z,-1.92
2019-01-19T21:01:04.097Z,-1.94
2019-01-19T21:04:07.998Z,-1.92
2019-01-19T21:07:11.846Z,-1.89
2019-01-19T21:10:15.821Z,-1.88
2019-01-19T21:13:19.675Z,-1.94
2019-01-19T21:16:23.495Z,-1.95
2019-01-19T21:19:27.307Z,-2.04
2019-01-19T21:22:31.205Z,-2.07
2019-01-19T21:25:35.098Z,-2.10
2019-01-19T21:28:38.985Z,-2.17
2019-01-19T21:31:42.825Z,-2.19
2019-01-19T21:34:46.631Z,-2.26
2019-01-19T21:37:50.515Z,-2.27
2019-01-19T21:40:54.320Z,-2.24
2019-01-19T21:43:58.160Z,-2.22
2019-01-19T21:47:02.062Z,-2.22
2019-01-19T21:50:06.783Z,-2.24
2019-01-19T21:53:10.682Z,-2.24
2019-01-19T21:56:14.481Z,-2.23
2019-01-19T21:59:18.310Z,-2.28
2019-01-19T22:02:22.127Z,-2.29
2019-01-19T22:05:25.945Z,-2.32
2019-01-19T22:08:29.757Z,-2.37
2019-01-19T22:11:33.563Z,-2.35
2019-01-19T22:14:37.463Z,-2.36
2019-01-19T22:17:41.444Z,-2.42
2019-01-19T22:20:45.251Z,-2.40
2019-01-19T22:23:49.047Z,-2.40
2019-01-19T22:26:53.660Z,-2.41
2019-01-19T22:29:57.473Z,-2.42
2019-01-19T22:33:01.551Z,-2.47
2019-01-19T22:36:05.439Z,-2.47
2019-01-19T22:39:09.277Z,-2.47
2019-01-19T22:42:13.097Z,-2.49
2019-01-19T22:45:17.084Z,-2.53
2019-01-19T22:48:20.900Z,-2.51
2019-01-19T22:51:24.710Z,-2.51
2019-01-19T22:54:28.516Z,-2.53
2019-01-19T22:57:32.364Z,-2.56
2019-01-19T23:01:04.214Z,-2.56
2019-01-19T23:04:08.190Z,-2.58
2019-01-19T23:07:12.012Z,-2.61
2019-01-19T23:10:15.954Z,-2.64
2019-01-19T23:13:19.870Z,-2.61
2019-01-19T23:16:23.807Z,-2.62
2019-01-19T23:19:27.667Z,-2.63
2019-01-19T23:22:31.672Z,-2.64
2019-01-19T23:25:35.539Z,-2.61
2019-01-19T23:28:39.358Z,-2.64
2019-01-19T23:31:43.434Z,-2.64
2019-01-19T23:34:47.336Z,-2.61
2019-01-19T23:37:51.228Z,-2.54
2019-01-19T23:40:55.045Z,-2.54
2019-01-19T23:43:58.995Z,-2.51
2019-01-19T23:47:02.829Z,-2.46
2019-01-19T23:50:06.771Z,-2.40
2019-01-19T23:53:10.689Z,-2.36
2019-01-19T23:56:14.504Z,-2.32
2019-01-19T23:59:18.345Z,-2.30
